Brookville, New York
Current Conditions -  °F | °C
As of 1:07 PM on Monday 24 Nov 2014 (Local Time) from KFRG Reporting Station
Moderate Fog Moderate Fog  
Wind Chill: 60°   Ceiling: 200
Heat Index: 60°   Visibility: 0.12mi
Dew Point: 58°   Wind: 17mph
Humidity: 93%   Direction: 200°SSW
Pressure: 29.64"   Gusts: 26mph
Location:  40.8159°N, 73.6224°W
Report Text: KFRG 241807Z 20015G23KT 1/8SM FG VV002 16/14 A2964 RMK AO2 SFC VIS 1/4 T01560144
Loading
Personal Weather Stations






























Interactive Weather Map New forecast layout! Learn more

10-Day Weather Forecast

Advertisements
Track Severe Weather on mobile